Latest Weather Observations for Ernabella/Pukatja

IDD60801

Issued at 6:01 pm CST Tuesday 23 April 2019 (issued every 10 minutes, with the page automatically refreshed every 10 minutes)

About weather observations | Map of weather stations | Latest weather observations for NT | Other Formats
Station Details ID: 016097 Name: PUKATJA Lat: -26.26 Lon: 132.18 Height: 703.2 m
Data from the previous 72 hours. | See also: Recent months at Ernabella/Pukatja
Date/Time
CST
Temp
°C
App
Temp
°C
Dew
Point
°C
Rel
Hum
%
Delta-T
°C
Wind Press
QNH
hPa
Press
MSL
hPa
Rain since
9am
mm
Dir  Spd
km/h
Gust
km/h
Spd
kts
Gust
kts
23/06:00pm 22.2 18.1 6.4 36 8.3 E 17 22 9 12 1022.6 1019.5 0.0
23/05:30pm 23.1 18.5 5.5 32 9.1 ESE 19 28 10 15 1022.4 1019.3 0.0
23/05:00pm 23.6 19.0 5.5 31 9.5 ESE 19 37 10 20 1022.2 1019.1 0.0
23/04:30pm 24.2 19.9 5.1 29 9.9 ESE 17 28 9 15 1022.1 1019.0 0.0
23/04:00pm 23.9 19.6 5.3 30 9.7 E 17 28 9 15 1022.2 1019.1 0.0
23/03:30pm 23.9 19.6 5.3 30 9.7 ENE 17 28 9 15 1022.1 1019.0 0.0
23/03:00pm 23.8 19.0 5.7 31 9.5 ENE 20 30 11 16 1022.2 1019.1 0.0
23/02:30pm 23.3 19.2 6.1 33 9.0 ENE 17 30 9 16 1022.4 1019.3 0.0
23/02:00pm 22.6 18.3 5.1 32 9.0 E 17 26 9 14 1022.7 1019.6 0.0
23/01:30pm 22.3 17.8 6.1 35 8.5 E 19 32 10 17 1023.2 1020.1 0.0
23/01:00pm 22.5 18.4 6.3 35 8.5 E 17 30 9 16 1023.8 1020.7 0.0
23/12:30pm 21.5 17.2 7.0 39 7.7 ENE 19 26 10 14 1024.4 1021.4 0.0
23/12:00pm 20.9 16.6 7.2 41 7.2 E 19 30 10 16 1024.8 1021.7 0.0
23/11:30am 20.1 15.9 7.5 44 6.7 ENE 19 33 10 18 1025.2 1022.1 0.0
23/11:00am 19.2 14.7 7.0 45 6.4 E 20 30 11 16 1025.5 1022.5 0.0
23/10:30am 19.0 14.1 7.1 46 6.2 E 22 39 12 21 1025.7 1022.7 0.0
23/10:00am 17.7 13.1 6.6 48 5.7 SE 20 28 11 15 1025.9 1022.9 0.0
23/09:30am 16.1 11.5 5.7 50 5.2 SE 19 28 10 15 1026.1 1023.0 0.0
23/09:00am 14.9 9.7 5.7 54 4.5 SE 22 30 12 16 1025.9 1022.9 0.0
23/08:30am 13.6 8.6 4.5 54 4.3 SE 20 28 11 15 1025.7 1022.7 0.0
23/08:00am 13.0 10.0 3.9 54 4.3 ESE 9 17 5 9 1025.6 1022.6 0.0
23/07:30am 11.4 7.4 2.9 56 3.8 ESE 13 20 7 11 1025.3 1022.2 0.0
23/07:00am 11.4 6.7 3.2 57 3.7 SE 17 26 9 14 1025.1 1022.0 0.0
23/06:30am 11.6 5.9 3.1 56 3.9 SE 22 30 12 16 1024.9 1021.8 0.0
23/06:00am 12.0 6.8 2.7 53 4.2 SE 19 30 10 16 1025.0 1021.9 0.0
23/05:30am 11.5 7.8 2.3 53 4.1 SE 11 19 6 10 1024.7 1021.6 0.0
23/05:00am 11.6 7.0 1.8 51 4.4 SE 15 20 8 11 1024.4 1021.4 0.0
23/04:30am 11.8 6.8 1.4 49 4.6 SE 17 28 9 15 1024.1 1021.0 0.0
23/04:00am 11.9 6.5 1.5 49 4.6 SE 19 26 10 14 1024.2 1021.2 0.0
23/03:30am 12.0 6.7 1.6 49 4.6 SE 19 24 10 13 1024.2 1021.2 0.0
23/03:00am 11.8 6.9 1.7 50 4.5 SSE 17 22 9 12 1024.4 1021.4 0.0
23/02:30am 12.6 7.7 1.9 48 4.8 SE 17 24 9 13 1024.4 1021.4 0.0
23/02:00am 12.4 7.9 2.0 49 4.7 SE 15 22 8 12 1024.6 1021.5 0.0
23/01:30am 12.7 7.4 2.0 48 4.8 SE 19 28 10 15 1024.7 1021.6 0.0
23/01:00am 13.0 7.8 2.3 48 4.9 SE 19 26 10 14 1025.0 1021.9 0.0
23/12:30am 13.0 8.5 2.3 48 4.8 SE 15 26 8 14 1025.1 1022.0 0.0
23/12:00am 13.0 8.9 2.3 48 4.8 SE 13 17 7 9 1025.3 1022.2 0.0
 
Date/Time
CST
Temp
°C
App
Temp
°C
Dew
Point
°C
Rel
Hum
%
Delta-T
°C
Wind Press
QNH
hPa
Press
MSL
hPa
Rain since
9am
mm
Dir  Spd
km/h
Gust
km/h
Spd
kts
Gust
kts
22/11:30pm 13.6 9.1 2.2 46 5.2 SE 15 20 8 11 1025.5 1022.5 0.0
22/11:00pm 13.5 9.4 2.1 46 5.2 SE 13 22 7 12 1025.6 1022.6 0.0
22/10:30pm 13.8 9.6 1.8 44 5.4 SE 13 17 7 9 1025.9 1022.9 0.0
22/10:00pm 14.5 10.3 1.4 41 5.9 SE 13 17 7 9 1025.8 1022.8 0.0
22/09:30pm 14.9 10.2 1.1 39 6.2 SE 15 22 8 12 1025.8 1022.8 0.0
22/09:00pm 15.4 10.6 0.4 36 6.6 SE 15 20 8 11 1025.6 1022.6 0.0
22/08:30pm 16.1 11.4 0.7 35 6.9 SE 15 20 8 11 1025.3 1022.2 0.0
22/08:00pm 16.3 11.9 0.4 34 7.1 SE 13 24 7 13 1024.9 1021.8 0.0
22/07:30pm 16.8 12.4 0.5 33 7.3 SE 13 24 7 13 1024.3 1021.3 0.0
22/07:00pm 17.3 12.2 0.9 33 7.5 SE 17 24 9 13 1024.0 1020.9 0.0
22/06:30pm 17.5 12.8 0.6 32 7.7 SE 15 22 8 12 1023.7 1020.6 0.0
22/06:00pm 18.4 13.0 1.0 31 8.0 SSE 19 24 10 13 1023.5 1020.4 0.0
22/05:30pm 19.1 13.6 0.7 29 8.5 SSE 19 28 10 15 1023.1 1020.0 0.0
22/05:00pm 19.7 14.7 1.2 29 8.7 SSE 17 24 9 13 1022.7 1019.6 0.0
22/04:30pm 20.2 15.2 1.1 28 8.9 SSE 17 26 9 14 1022.6 1019.5 0.0
22/04:00pm 20.7 15.7 1.1 27 9.2 SSE 17 28 9 15 1022.6 1019.5 0.0
22/03:30pm 20.6 15.0 1.5 28 9.0 S 20 28 11 15 1022.7 1019.6 0.0
22/03:00pm 20.5 15.1 1.4 28 9.0 SSE 19 35 10 19 1022.8 1019.7 0.0
22/02:30pm 20.3 15.3 1.2 28 9.0 S 17 28 9 15 1023.0 1019.9 0.0
22/02:00pm 19.7 14.4 2.1 31 8.4 SSE 19 28 10 15 1023.2 1020.1 0.0
22/01:30pm 18.9 14.0 2.3 33 7.9 S 17 28 9 15 1023.6 1020.5 0.0
22/01:00pm 18.9 13.7 2.3 33 7.9 SSE 19 28 10 15 1024.0 1020.9 0.0
22/12:30pm 18.6 13.6 3.6 37 7.3 ESE 19 28 10 15 1024.4 1021.4 0.0
22/12:00pm 17.3 12.3 3.6 40 6.6 SSE 19 28 10 15 1025.0 1021.9 0.0
22/11:30am 16.3 10.8 4.0 44 5.9 SSE 22 32 12 17 1025.5 1022.5 0.0
22/11:00am 16.5 11.6 4.9 46 5.7 SE 20 32 11 17 1025.7 1022.7 0.0
22/10:30am 15.3 9.9 4.7 49 5.1 SSE 22 33 12 18 1025.9 1022.9 0.0
22/10:00am 14.1 8.4 4.9 54 4.5 SE 24 37 13 20 1026.3 1023.2 0.0
22/09:30am 13.0 7.3 4.9 58 3.9 SE 24 32 13 17 1026.2 1023.1 0.0
22/09:00am 12.4 6.8 5.3 62 3.4 SE 24 35 13 19 1026.1 1023.0 0.0
22/08:30am 11.3 4.9 5.2 66 2.9 SE 28 39 15 21 1025.7 1022.7 0.0
22/08:00am 10.6 5.0 5.2 69 2.6 SE 24 33 13 18 1025.2 1022.1 0.0
22/07:30am 9.9 3.9 5.1 72 2.2 SE 26 33 14 18 1024.8 1021.7 0.0
22/07:00am 9.7 3.7 5.1 73 2.2 SE 26 35 14 19 1024.4 1021.4 0.0
22/06:30am 9.7 3.6 4.9 72 2.2 SE 26 33 14 18 1024.1 1021.0 0.0
22/06:00am 10.0 3.5 4.8 70 2.4 SE 28 37 15 20 1024.0 1020.9 0.0
22/05:30am 10.3 4.2 4.9 69 2.5 SE 26 39 14 21 1023.9 1020.8 0.0
22/05:00am 10.4 4.2 4.3 66 2.8 SE 26 37 14 20 1023.8 1020.7 0.0
22/04:30am 10.8 4.9 4.0 63 3.1 SSE 24 37 13 20 1023.7 1020.6 0.0
22/04:00am 11.1 5.5 3.6 60 3.5 SSE 22 33 12 18 1023.8 1020.7 0.0
22/03:30am 11.8 5.7 2.8 54 4.1 S 24 35 13 19 1023.6 1020.5 0.0
22/03:00am 12.1 5.2 2.6 52 4.3 SSE 28 41 15 22 1023.6 1020.5 0.0
22/02:30am 12.3 6.5 2.5 51 4.4 SSE 22 32 12 17 1023.4 1020.3 0.0
22/02:00am 12.6 6.8 2.5 50 4.6 SSE 22 30 12 16 1023.5 1020.4 0.0
22/01:30am 12.8 7.3 1.8 47 4.9 SSE 20 33 11 18 1023.6 1020.5 0.0
22/01:00am 13.6 8.7 1.9 45 5.3 SE 17 28 9 15 1023.6 1020.5 0.0
22/12:30am 13.9 8.0 1.5 43 5.6 SE 22 35 12 19 1023.8 1020.7 0.0
22/12:00am 14.0 8.4 1.3 42 5.7 SE 20 30 11 16 1024.0 1020.9 0.0
 
Date/Time
CST
Temp
°C
App
Temp
°C
Dew
Point
°C
Rel
Hum
%
Delta-T
°C
Wind Press
QNH
hPa
Press
MSL
hPa
Rain since
9am
mm
Dir  Spd
km/h
Gust
km/h
Spd
kts
Gust
kts
21/11:30pm 14.0 7.9 0.6 40 5.9 SE 22 28 12 15 1024.2 1021.2 0.0
21/11:00pm 14.4 8.4 1.0 40 6.0 SE 22 28 12 15 1024.4 1021.4 0.0
21/10:30pm 14.6 9.1 0.8 39 6.1 SSE 19 28 10 15 1024.7 1021.6 0.0
21/10:00pm 14.7 8.6 0.2 37 6.4 SSE 22 32 12 17 1024.6 1021.5 0.0
21/09:30pm 15.3 8.4 -0.1 35 6.7 SSE 26 35 14 19 1024.6 1021.5 0.0
21/09:00pm 15.6 9.2 1.0 37 6.6 SSE 24 33 13 18 1024.1 1021.0 0.0
21/08:30pm 16.2 10.2 1.1 36 6.8 S 22 32 12 17 1023.6 1020.5 0.0
21/08:00pm 16.7 10.8 1.6 36 7.0 S 22 30 12 16 1023.2 1020.1 0.0
21/07:30pm 16.9 12.5 2.9 39 6.6 SSE 15 22 8 12 1022.7 1019.6 0.0
21/07:00pm 17.6 12.6 3.5 39 6.8 S 19 26 10 14 1022.2 1019.1 0.0
21/06:30pm 17.8 12.6 3.7 39 6.8 S 20 28 11 15 1021.9 1018.8 0.0
21/06:00pm 18.5 13.0 3.9 38 7.1 S 22 30 12 16 1021.6 1018.4 0.0
21/05:30pm 19.5 14.4 4.0 36 7.6 S 20 32 11 17 1021.3 1018.2 0.0
21/05:00pm 19.5 14.4 4.0 36 7.7 S 20 28 11 15 1021.1 1018.0 0.0
21/04:30pm 20.4 15.6 4.4 35 8.0 S 19 28 10 15 1021.0 1017.9 0.0
21/04:00pm 19.9 15.0 4.0 35 7.9 S 19 26 10 14 1021.0 1017.9 0.0
21/03:30pm 20.1 15.2 4.2 35 7.9 SSE 19 26 10 14 1021.2 1018.1 0.0
21/03:00pm 19.5 14.3 3.6 35 7.8 SSE 20 30 11 16 1021.3 1018.2 0.0
21/02:30pm 19.5 13.9 3.6 35 7.8 S 22 33 12 18 1021.2 1018.1 0.0
21/02:00pm 19.0 13.8 3.6 36 7.5 S 20 32 11 17 1021.3 1018.2 0.0
21/01:30pm 18.1 12.8 3.2 37 7.2 SSE 20 32 11 17 1021.5 1018.3 0.0
21/01:00pm 17.8 12.2 3.3 38 7.0 SSE 22 32 12 17 1021.9 1018.8 0.0
21/12:30pm 18.5 13.2 3.2 36 7.4 S 20 30 11 16 1022.4 1019.3 0.0
21/12:00pm 17.2 11.9 2.8 38 6.8 S 20 32 11 17 1023.0 1019.9 0.0
21/11:30am 16.7 10.6 2.7 39 6.6 SSE 24 32 13 17 1023.3 1020.2 0.0
21/11:00am 16.0 10.2 2.4 40 6.3 SSE 22 32 12 17 1023.4 1020.3 0.0
21/10:30am 14.8 8.6 2.4 43 5.7 SSE 24 30 13 16 1023.6 1020.5 0.0
21/10:00am 14.4 9.0 2.3 44 5.6 S 20 28 11 15 1023.4 1020.3 0.0
21/09:30am 13.2 7.0 2.1 47 5.0 SSW 24 33 13 18 1023.8 1020.7 0.0
21/09:00am 12.5 6.6 1.8 48 4.8 SSW 22 33 12 18 1023.6 1020.5 0.0
21/08:30am 12.0 5.8 1.9 50 4.5 SSW 24 33 13 18 1023.2 1020.1 0.0
21/08:00am 11.3 6.4 1.8 52 4.2 SW 17 26 9 14 1022.6 1019.5 0.0
21/07:30am 10.9 6.0 1.7 53 4.0 SSW 17 26 9 14 1022.4 1019.3 0.0
21/07:00am 10.8 5.5 1.6 53 4.0 SSW 19 28 10 15 1021.9 1018.8 0.0
21/06:30am 11.1 6.2 3.9 61 3.3 SSW 19 28 10 15 1021.5 1018.3 0.0
21/06:00am 11.4 5.7 4.8 64 3.1 SSW 24 39 13 21 1021.3 1018.2 0.0
21/05:30am 11.6 5.7 5.7 67 2.8 SSW 26 41 14 22 1020.9 1017.8 0.0
21/05:00am 11.4 6.0 6.5 72 2.4 SSW 24 35 13 19 1020.5 1017.4 0.0
21/04:30am 11.4 6.2 7.3 76 2.0 SSW 24 37 13 20 1020.5 1017.4 0.0
21/04:00am 11.6 7.3 7.9 78 1.9 SSW 20 30 11 16 1020.5 1017.4 0.0
21/03:30am 11.8 7.5 7.9 77 2.0 SSW 20 30 11 16 1020.4 1017.3 0.0
21/03:00am 12.0 8.3 8.1 77 2.0 SSW 17 26 9 14 1020.2 1017.0 0.0
21/02:30am 12.2 8.0 8.3 77 2.0 SSW 20 32 11 17 1020.4 1017.3 0.0
21/02:00am 12.5 8.1 9.0 79 1.8 SSW 22 37 12 20 1020.5 1017.4 0.0
21/01:30am 12.7 7.2 9.3 80 1.8 SW 28 41 15 22 1020.7 1017.6 0.0
21/01:00am 12.8 7.2 10.0 83 1.5 SSW 30 39 16 21 1020.6 1017.5 0.0
21/12:30am 13.5 8.7 10.3 81 1.7 SSW 26 41 14 22 1020.4 1017.3 0.0
21/12:00am 14.5 8.0 10.3 76 2.3 SW 35 46 19 25 1020.3 1017.1 0.0
 
Date/Time
CST
Temp
°C
App
Temp
°C
Dew
Point
°C
Rel
Hum
%
Delta-T
°C
Wind Press
QNH
hPa
Press
MSL
hPa
Rain since
9am
mm
Dir  Spd
km/h
Gust
km/h
Spd
kts
Gust
kts
20/11:43pm 14.8 9.5 10.0 73 2.6 SSW 28 46 15 25 1020.3 1017.1 0.0
20/11:30pm 15.1 9.5 10.1 72 2.7 SSW 30 41 16 22 1020.4 1017.3 0.0
20/11:00pm 15.6 9.6 10.8 73 2.6 SW 33 50 18 27 1019.8 1016.7 0.0
20/10:30pm 16.3 10.3 12.1 76 2.4 SW 35 50 19 27 1019.5 1016.4 0.0
20/10:00pm 16.8 11.1 12.9 78 2.2 SW 35 46 19 25 1019.5 1016.4 0.0
20/09:30pm 17.5 10.3 13.6 78 2.3 SW 44 59 24 32 1019.1 1016.0 0.0
20/09:22pm 17.7 11.1 13.6 77 2.4 SW 41 59 22 32 1019.0 1015.8 0.0
20/09:00pm 19.5 12.9 13.7 69 3.4 SW 41 54 22 29 1018.6 1015.4 0.0
20/08:56pm 19.9 12.9 13.6 67 3.7 SW 43 54 23 29 1018.6 1015.4 0.0
20/08:36pm 24.9 19.6 5.2 28 10.3 WSW 22 44 12 24 1017.8 1014.7 0.0
20/08:30pm 24.3 20.3 3.0 25 10.7 WSW 13 19 7 10 1017.5 1014.3 0.0
20/08:00pm 24.8 23.3 2.9 24 11.0 CALM 0 0 0 0 1016.6 1013.5 0.0
20/07:30pm 24.6 22.7 2.7 24 10.9 E 2 6 1 3 1016.1 1012.9 0.0
20/07:00pm 25.1 22.5 3.1 24 11.1 NE 6 9 3 5 1016.2 1013.0 0.0
20/06:30pm 26.2 23.5 3.5 23 11.6 ESE 7 9 4 5 1015.8 1012.6 0.0

Other formats

Comma delimited format used in spreadsheet applications
http://www.bom.gov.au/fwo/IDD60801/IDD60801.94474.axf

JavaScript Object Notation format (JSON) in row-major order
http://www.bom.gov.au/fwo/IDD60801/IDD60801.94474.json

Data quality

Most of these data are generated automatically and are frequently updated. Quality checks on data are not normally performed. It is possible for incorrect values to appear. Refer to information at About Latest Weather Observations and please check the disclaimer before using these data.